Date,TemperatureHighF,TemperatureAvgF,TemperatureLowF,DewpointHighF,DewpointAvgF,DewpointLowF,HumidityHigh,HumidityAvg,HumidityLow,PressureMaxIn,PressureMinIn,WindSpeedMaxMPH,WindSpeedAvgMPH,GustSpeedMaxMPH,PrecipitationSumIn
2012-6-5,59,59,59,56,56,56,89,89,89,29.77,29.77,23,23,0,0.00
2012-6-6,68,67,66,57,56,56,73,69,66,29.66,29.65,16,16,0,0.00
2012-6-10,59,59,59,53,53,53,80,80,80,29.68,29.68,26,26,0,0.00
2012-6-11,59,58,55,53,51,49,88,79,70,29.63,29.62,25,21,0,0.00
2012-6-12,61,61,60,53,52,51,78,74,71,29.92,29.84,15,10,0,0.00
2012-6-13,61,59,56,51,47,46,71,66,61,29.99,29.88,25,18,0,0.00
2012-6-14,59,58,55,49,48,46,78,70,61,29.93,29.50,23,21,0,0.00
2012-6-15,60,59,59,50,48,46,70,67,61,30.12,29.97,21,16,0,0.00
2012-6-16,73,65,59,65,57,52,79,74,71,30.18,29.93,28,20,0,0.00
2012-6-17,72,71,70,66,63,60,83,76,67,29.99,29.91,18,16,0,0.00
2012-6-18,75,73,72,66,64,63,83,76,69,29.99,29.77,34,23,0,0.00
2012-6-19,78,43,78,66,-8,-100,64,36,64,30.14,30.14,18,-442,0,0.00
2012-6-20,73,73,73,62,62,62,68,68,68,30.09,30.09,5,5,0,0.00
2012-6-21,77,77,77,68,68,68,73,73,73,29.94,29.94,6,6,0,0.00
2012-6-22,77,76,75,74,72,66,91,88,69,29.93,29.87,17,12,0,0.00
2012-6-23,73,73,73,71,71,71,91,91,91,29.96,29.96,13,13,0,0.00
2012-6-24,82,79,73,77,75,71,92,86,78,29.96,29.66,28,20,0,0.00
2012-6-25,88,88,88,78,78,78,73,73,73,29.71,29.71,10,10,0,0.00
2012-6-26,88,88,88,78,78,78,73,73,73,29.71,29.71,10,10,0,0.00
2012-6-27,90,90,90,78,78,78,67,67,67,29.87,29.87,15,15,0,0.00
2012-6-28,90,86,82,81,78,74,79,74,67,30.03,29.87,15,11,0,0.00
2012-6-29,86,83,82,77,74,70,78,72,65,29.99,29.97,11,7,0,0.00
2012-6-30,82,82,82,70,70,70,65,65,65,29.97,29.97,11,11,0,0.00
2012-7-1,82,82,82,75,75,75,78,78,78,29.99,29.99,5,5,0,0.00
2012-7-2,82,82,82,75,75,75,78,78,78,29.99,29.99,5,5,0,0.00
2012-7-3,84,81,79,72,70,67,77,69,64,29.97,29.97,14,12,0,0.00
2012-7-4,81,78,75,75,71,66,100,80,64,29.97,29.97,16,13,0,0.00
2012-7-5,77,75,72,73,67,58,91,76,55,30.09,29.97,25,17,0,0.00
2012-7-6,75,74,72,73,67,63,91,80,69,30.34,30.11,23,18,0,0.00
2012-7-7,72,70,68,65,64,63,91,82,75,30.42,30.33,17,14,0,0.00
2012-7-8,68,65,64,62,62,62,90,88,82,30.42,30.27,21,16,0,0.00
2012-7-10,61,61,61,55,53,51,80,75,71,30.03,30.02,15,13,0,0.00
2012-7-14,64,63,61,58,54,52,90,74,64,29.74,29.62,16,14,0,0.00
2012-7-16,63,61,59,57,55,53,80,80,80,30.06,30.02,28,25,0,0.00
2012-7-17,66,64,63,62,59,54,90,82,65,30.28,30.14,28,21,0,0.00
2012-7-18,66,65,63,60,56,51,90,74,57,30.18,30.12,23,21,0,0.00
2012-7-19,66,66,66,63,63,63,91,91,91,30.00,30.00,24,24,0,0.00
2012-7-20,77,72,70,72,69,67,91,89,84,30.27,30.03,23,20,0,0.00
2012-7-21,74,74,74,71,71,71,88,88,88,30.03,30.03,18,18,0,0.00
2012-7-22,70,69,68,64,58,56,82,71,66,30.12,30.03,22,19,0,0.00
2012-7-23,82,78,75,70,68,67,76,72,65,30.12,30.04,22,13,0,0.00
2012-7-24,86,86,86,79,79,79,79,79,79,29.85,29.85,39,39,0,0.00
2012-7-26,88,88,88,78,78,78,73,73,73,29.91,29.91,23,23,0,0.00
2012-7-27,88,84,82,78,76,74,85,76,67,30.06,29.94,15,11,0,0.00
2012-7-28,90,89,88,78,75,73,67,63,61,30.07,30.06,13,12,0,0.00
2012-7-29,86,86,84,74,74,74,72,68,66,30.12,30.03,17,10,0,0.00
2012-7-30,86,83,81,76,76,74,85,80,72,30.06,29.98,10,9,0,0.00
2012-8-1,91,89,87,77,77,77,72,67,62,29.96,29.94,9,7,0,0.00
2012-8-2,90,88,83,75,74,73,71,65,61,29.97,29.95,13,9,0,0.00
2012-8-3,83,82,81,74,72,70,77,72,71,30.00,29.96,17,11,0,0.00
2012-8-4,81,81,81,74,72,70,77,73,71,30.00,29.97,17,14,0,0.00
2012-8-5,79,79,79,74,74,74,84,84,84,30.12,30.12,14,14,0,0.00
2012-8-6,79,79,79,74,74,74,84,84,84,30.12,30.12,14,14,0,0.00
2012-8-7,79,78,77,72,70,68,84,77,70,30.01,29.99,15,9,0,0.00
2012-8-8,79,78,77,74,71,68,84,78,70,30.06,30.00,15,8,0,0.00
2012-8-9,82,78,75,78,72,69,91,82,73,30.10,30.03,18,12,0,0.00
2012-8-10,79,78,77,74,72,68,84,81,70,30.08,29.99,18,12,0,0.00
2012-8-11,79,75,70,74,68,62,84,78,63,30.08,30.01,17,12,0,0.00
2012-8-12,66,66,66,54,50,47,65,56,49,30.06,30.04,16,15,0,0.00
2012-8-13,64,64,63,63,58,55,100,83,72,29.86,29.83,22,18,0,0.00
2012-8-14,72,65,63,60,58,57,90,77,60,29.68,29.65,15,13,0,0.00
2012-8-15,68,67,66,62,62,61,82,82,82,29.68,29.67,22,16,0,0.00
2012-8-21,66,64,64,61,60,59,82,81,81,30.18,30.09,13,10,0,0.00
2012-8-22,66,65,64,59,57,54,81,74,65,30.21,30.11,33,22,0,0.00
2012-8-23,70,68,66,68,62,57,100,83,73,30.06,29.78,51,30,0,0.00
2012-8-24,75,71,66,67,61,54,76,71,65,30.15,30.06,28,19,0,0.00
2012-8-25,77,76,70,72,69,63,84,78,63,30.22,30.03,28,19,0,0.00
2012-8-26,82,78,75,75,70,67,84,78,76,30.23,30.19,15,12,0,0.00
2012-8-27,84,83,82,75,74,74,78,75,72,30.17,30.16,10,10,0,0.00
2012-8-28,84,80,77,77,74,72,85,83,78,30.11,29.98,23,16,0,0.00
2012-8-30,79,79,79,74,74,74,84,84,84,30.13,30.13,6,6,0,0.00
2012-8-31,82,82,82,78,78,78,85,85,85,30.18,30.18,6,6,0,0.00
2012-9-2,85,84,82,76,75,75,81,76,72,30.05,30.03,15,14,0,0.00
2012-9-3,86,82,79,76,75,74,85,79,66,30.03,30.00,15,9,0,0.00
2012-9-5,90,88,86,78,77,76,72,68,67,29.88,29.88,10,9,0,0.00
2012-9-6,86,81,77,76,74,72,85,79,71,29.97,29.88,18,13,0,0.00
2012-9-7,88,83,81,76,75,72,85,76,66,30.02,29.93,15,11,0,0.00
2012-9-8,81,81,81,76,76,76,85,85,85,29.91,29.88,17,11,0,0.00
2012-9-9,81,79,79,74,72,68,84,79,70,29.89,29.84,23,16,0,0.00
2012-9-10,77,76,75,66,63,61,69,65,62,29.89,29.89,23,22,0,0.00
2012-9-11,73,71,70,59,58,55,66,63,59,30.25,29.93,11,9,0,0.00
2012-9-12,79,73,70,59,56,54,59,55,51,30.31,30.24,15,10,0,0.00
2012-9-13,73,71,68,60,58,53,67,63,58,30.34,30.32,23,16,0,0.00
2012-9-14,75,68,66,57,55,52,73,63,47,30.33,30.18,23,17,0,0.00
2012-9-15,70,65,63,62,57,54,81,74,65,30.17,30.08,26,20,0,0.00
2012-9-16,66,63,62,58,55,49,81,73,57,30.13,30.09,24,19,0,0.00
2012-9-17,68,64,61,56,53,48,80,68,60,30.13,30.04,30,18,0,0.00
2012-9-18,66,63,61,54,49,46,72,62,49,30.09,30.05,23,21,0,0.00
2012-9-19,60,59,59,47,47,47,65,63,61,30.13,30.13,23,23,0,0.00
2012-9-22,66,62,59,47,46,46,61,55,49,30.07,30.06,21,18,0,0.00
2012-9-24,63,61,55,53,51,49,78,71,63,29.41,29.25,54,45,0,0.00
2012-9-25,63,59,57,53,50,48,80,72,62,29.38,29.24,34,26,0,0.00
2012-9-26,61,60,59,51,50,49,71,71,70,30.19,29.45,32,25,0,0.00
2012-9-27,68,64,61,54,51,46,68,61,54,30.35,30.22,20,12,0,0.00
2012-9-28,72,69,66,69,62,56,91,79,66,30.35,30.22,22,13,0,0.00
2012-9-29,73,72,72,69,67,65,91,84,75,30.22,30.14,14,10,0,0.00
2012-9-30,77,75,75,70,69,67,83,81,76,30.15,30.15,8,4,0,0.00
2012-10-1,82,79,77,78,75,72,92,88,81,30.10,29.99,22,18,0,0.00
2012-10-2,85,82,80,79,77,76,88,85,78,30.07,30.00,30,22,0,0.00
2012-10-3,81,81,81,76,76,76,85,85,85,30.00,30.00,28,28,0,0.00
2012-10-4,79,79,79,74,73,71,84,81,77,30.18,30.16,9,6,0,0.00
2012-10-5,86,82,79,79,75,73,85,80,72,30.13,29.99,14,10,0,0.00
2012-10-6,81,81,81,73,73,73,77,77,77,29.94,29.94,18,18,0,0.00
2012-10-7,86,81,74,78,74,72,91,81,72,29.99,29.92,21,10,0,0.00
2012-10-8,79,76,70,74,70,62,91,82,74,30.09,29.97,24,19,0,0.00
2012-10-10,82,82,82,72,72,72,71,71,71,30.07,30.07,14,14,0,0.00
2012-10-11,88,84,82,73,72,72,71,67,61,30.07,30.07,16,15,0,0.00
2012-10-12,82,81,81,72,69,67,71,67,64,30.08,30.06,26,25,0,0.00
2012-10-13,75,75,75,64,64,64,69,69,69,30.18,30.18,25,25,0,0.00
2012-10-14,75,75,75,61,61,61,62,62,62,30.09,30.09,10,10,0,0.00
2012-10-15,72,72,72,69,69,69,91,91,91,29.94,29.94,11,11,0,0.00
2012-10-16,66,66,66,51,51,51,57,57,57,29.99,29.99,26,26,0,0.00
2012-10-17,70,69,66,55,54,51,59,58,57,29.99,29.83,28,26,0,0.00
2012-10-18,68,68,68,56,56,56,66,66,66,29.91,29.91,21,21,0,0.00
2012-10-19,72,71,69,61,58,54,75,64,53,30.15,30.12,21,15,0,0.00
2012-10-20,70,70,70,58,58,58,66,66,66,30.12,30.12,18,18,0,0.00
2012-10-21,66,66,66,54,54,54,65,65,65,29.91,29.91,34,34,0,0.00
2012-10-22,64,64,63,59,56,53,81,76,71,29.43,29.40,18,18,0,0.00
2012-10-23,66,66,66,57,57,57,73,73,73,29.56,29.56,28,28,0,0.00
2012-10-24,63,61,60,58,56,54,90,84,80,30.09,29.99,22,19,0,0.00
2012-10-27,50,50,50,39,39,39,64,64,64,29.94,29.94,28,28,0,0.00
2012-10-28,54,54,53,38,36,34,56,51,47,29.97,29.91,15,13,0,0.00
2012-10-29,54,54,54,47,47,47,78,78,78,29.65,29.65,22,22,0,0.00
2012-10-30,55,55,55,45,45,45,68,68,68,29.63,29.63,17,17,0,0.00
2012-10-31,57,56,55,51,46,43,79,68,59,29.56,29.34,40,30,0,0.00
2012-11-1,63,62,61,51,50,45,71,67,63,29.84,29.47,34,19,0,0.00
2012-11-2,65,63,61,56,52,49,73,70,62,30.00,29.84,18,17,0,0.00
2012-11-3,72,67,59,61,57,53,81,70,58,30.08,30.06,23,14,0,0.00
2012-11-4,72,72,72,60,60,60,67,67,67,30.03,30.03,25,25,0,0.00
2012-11-5,75,73,72,65,61,58,75,67,55,30.05,29.99,21,16,0,0.00
2012-11-6,73,72,70,66,64,62,87,76,68,30.02,29.96,22,19,0,0.00
2012-11-7,73,73,73,65,65,65,75,75,75,29.70,29.70,37,37,0,0.00
2012-11-9,72,66,63,57,52,46,64,60,54,30.22,30.16,16,15,0,0.00
2012-11-10,75,74,73,63,62,62,68,66,65,30.18,30.17,23,20,0,0.00
2012-11-11,77,76,75,66,64,64,69,69,69,30.14,30.12,21,21,0,0.00
2012-11-12,75,72,68,69,62,56,80,73,66,30.24,30.10,39,30,0,0.00
2012-11-14,65,65,65,43,43,43,43,43,43,30.27,30.27,11,11,0,0.00
2012-11-15,75,66,65,53,48,43,64,53,43,30.27,30.08,21,17,0,0.00
2012-11-16,75,75,75,67,67,67,76,76,76,30.03,30.03,17,17,0,0.00
2012-11-17,75,75,75,67,67,67,76,76,76,30.03,30.03,17,17,0,0.00
2012-11-18,63,63,63,60,60,60,90,90,90,30.00,30.00,48,48,0,0.00
2012-11-19,62,62,62,60,60,60,95,95,95,30.01,30.01,36,36,0,0.00
2012-11-20,54,54,54,50,50,50,88,88,88,30.05,30.05,21,21,0,0.00
2012-11-21,68,54,54,50,50,50,88,88,88,30.05,29.91,34,21,0,0.00
2012-11-22,68,67,66,54,54,53,65,62,58,29.94,29.91,34,30,0,0.00
2012-11-24,57,57,57,51,51,51,79,79,79,30.03,30.03,23,23,0,0.00
2012-11-25,66,63,61,55,51,47,80,68,49,30.25,30.15,24,21,0,0.00
2012-11-26,57,57,57,53,53,53,84,84,84,30.33,30.33,14,14,0,0.00
2012-11-27,55,55,55,45,43,41,68,63,58,30.43,30.21,36,29,0,0.00
2012-11-28,55,55,55,45,45,45,68,68,68,30.05,30.05,28,28,0,0.00
2012-12-1,46,45,45,41,40,39,86,81,74,29.91,29.67,26,24,0,0.00
2012-12-2,46,46,46,39,39,39,74,74,74,29.62,29.62,28,28,0,0.00
2012-12-5,48,48,48,41,41,41,75,75,75,29.96,29.96,34,34,0,0.00
2012-12-6,54,54,54,50,50,50,88,88,88,29.85,29.85,23,23,0,0.00
2012-12-7,63,60,55,60,55,49,90,83,78,30.21,29.26,37,30,0,0.00
2012-12-8,64,56,45,62,52,37,90,83,73,30.00,29.15,34,26,0,0.00
2012-12-9,48,48,48,41,41,41,75,75,75,30.05,30.05,34,34,0,0.00
2012-12-10,66,66,66,61,61,61,82,82,82,30.11,30.11,11,11,0,0.00
2012-12-11,72,72,72,70,67,66,91,86,83,30.05,30.03,17,12,0,0.00
2012-12-14,73,73,73,65,65,65,75,75,75,30.11,30.11,17,17,0,0.00
2012-12-15,70,70,70,64,64,64,82,82,82,30.06,30.06,18,18,0,0.00
2012-12-16,79,76,73,71,71,71,91,84,77,30.02,29.93,16,11,0,0.00
2012-12-21,68,66,61,57,55,48,72,68,62,30.21,29.92,34,28,0,0.00
2012-12-22,72,65,59,57,51,45,72,59,42,30.28,30.14,32,23,0,0.00
2012-12-23,63,59,55,50,41,34,63,50,41,30.19,30.17,18,15,0,0.00
2012-12-24,72,68,63,59,56,50,68,65,59,30.09,29.98,28,20,0,0.00
2012-12-25,64,57,52,52,47,45,81,71,63,30.08,29.94,17,14,0,0.00
2012-12-27,63,61,59,55,53,50,82,75,72,29.60,29.44,56,38,0,0.00
2012-12-28,68,63,59,55,52,50,82,69,55,30.00,29.62,63,40,0,0.00
2012-12-29,73,66,63,57,55,52,82,69,53,29.96,29.77,44,34,0,0.00
2012-12-30,68,64,62,57,55,54,79,72,66,30.01,29.93,36,26,0,0.00
2012-12-31,63,62,59,59,57,52,88,84,72,30.06,30.00,22,16,0,0.00
2013-1-1,63,60,57,59,56,54,90,86,82,30.24,30.04,21,18,0,0.00